Terminal Aerodrome Forecast
Issued by NWS Cleveland, OH

Home | Current Version | Previous Version | Graphics & Text | Print | Product List | Glossary On
Versions: 1 2 3 4 5 6 7 8 9 10 11 12 13 14 15 16 17 18 19 20 21 22 23 24 25 26 27
064
FTUS41 KCLE 071729
TAFMFD
TAF
KMFD 071729Z 0718/0818 19012KT P6SM BKN250
     FM072200 19010KT P6SM BKN120
     FM080200 19010KT P6SM SCT045 OVC120
      TEMPO 0802/0806 BKN045
     FM080600 20008KT 6SM -RA BR OVC045
      TEMPO 0806/0810 4SM -RASN BR OVC015
     FM081000 20006KT 4SM -RASN BR OVC012
     FM081400 24006KT 2SM -RASN BR OVC008=

USA.gov is the U.S. government's official web portal to all federal, state and local government web resources and services.